createdAt,value
2022-12-23T00:02:11.105Z,9.60
2022-12-23T00:04:40.013Z,8.40
2022-12-23T00:07:08.734Z,6.40
2022-12-23T00:09:37.426Z,6.40
2022-12-23T00:12:20.151Z,7.80
2022-12-23T00:15:03.872Z,6.80
2022-12-23T00:17:33.062Z,9.00
2022-12-23T00:20:01.838Z,12.40
2022-12-23T00:22:46.033Z,8.20
2022-12-23T00:25:15.652Z,11.20
2022-12-23T00:28:02.471Z,8.20
2022-12-23T00:30:35.269Z,7.40
2022-12-23T00:33:06.563Z,15.60
2022-12-23T00:35:35.465Z,6.80
2022-12-23T00:38:04.206Z,8.80
2022-12-23T00:40:50.253Z,4.60
2022-12-23T00:43:21.774Z,9.60
2022-12-23T00:45:57.244Z,10.80
2022-12-23T00:48:41.112Z,6.40
2022-12-23T00:51:10.058Z,10.80
2022-12-23T00:53:39.052Z,9.20
2022-12-23T00:56:08.003Z,10.40
2022-12-23T00:58:36.714Z,7.60
2022-12-23T01:01:20.948Z,7.60
2022-12-23T01:04:03.493Z,9.60
2022-12-23T01:06:32.154Z,10.80
2022-12-23T01:09:00.904Z,5.60
2022-12-23T01:11:29.648Z,9.00
2022-12-23T01:13:59.628Z,11.00
2022-12-23T01:16:29.769Z,10.60
2022-12-23T01:18:58.556Z,15.60
2022-12-23T01:21:27.302Z,9.20
2022-12-23T01:23:55.971Z,9.40
2022-12-23T01:26:24.960Z,5.60
2022-12-23T01:28:55.334Z,8.20
2022-12-23T01:31:24.272Z,6.00
2022-12-23T01:33:54.419Z,4.00
2022-12-23T01:36:23.777Z,7.40
2022-12-23T01:38:52.549Z,11.20
2022-12-23T01:41:35.411Z,9.20
2022-12-23T01:44:04.761Z,13.00
2022-12-23T01:46:33.490Z,14.80
2022-12-23T01:49:03.634Z,10.00
2022-12-23T01:51:32.623Z,15.00
2022-12-23T01:54:01.843Z,15.40
2022-12-23T01:56:31.704Z,12.40
2022-12-23T01:59:02.070Z,14.20
2022-12-23T02:01:44.665Z,15.00
2022-12-23T02:04:19.092Z,11.20
2022-12-23T02:07:01.836Z,12.20
2022-12-23T02:09:31.606Z,9.20
2022-12-23T02:12:19.181Z,17.20
2022-12-23T02:15:10.873Z,24.40
2022-12-23T02:17:44.011Z,11.00
2022-12-23T02:20:29.795Z,9.40
2022-12-23T02:23:10.105Z,12.80
2022-12-23T02:25:49.549Z,7.40
2022-12-23T02:28:32.647Z,15.80
2022-12-23T02:31:03.343Z,12.80
2022-12-23T02:33:37.741Z,13.60
2022-12-23T02:36:12.127Z,14.20
2022-12-23T02:38:44.531Z,15.20
2022-12-23T02:41:17.285Z,21.60
2022-12-23T02:43:48.113Z,13.40
2022-12-23T02:46:22.622Z,14.60
2022-12-23T02:48:53.380Z,17.40
2022-12-23T02:51:22.686Z,11.00
2022-12-23T02:53:52.938Z,15.40
2022-12-23T02:56:21.943Z,9.80
2022-12-23T02:58:52.565Z,10.40
2022-12-23T03:01:24.570Z,10.80
2022-12-23T03:03:56.378Z,9.40
2022-12-23T03:06:27.009Z,14.20
2022-12-23T03:08:57.540Z,9.80
2022-12-23T03:11:40.396Z,12.60
2022-12-23T03:14:31.818Z,12.00
2022-12-23T03:17:05.637Z,8.80
2022-12-23T03:19:36.884Z,13.40
2022-12-23T03:22:08.901Z,16.60
2022-12-23T03:24:41.027Z,8.40
2022-12-23T03:27:11.760Z,15.20
2022-12-23T03:29:42.660Z,6.80
2022-12-23T03:32:13.044Z,11.00
2022-12-23T03:34:43.545Z,15.00
2022-12-23T03:37:12.570Z,14.00
2022-12-23T03:39:43.573Z,14.80
2022-12-23T03:42:14.703Z,14.20
2022-12-23T03:45:03.549Z,14.20
2022-12-23T03:47:36.270Z,16.80
2022-12-23T03:50:06.548Z,11.80
2022-12-23T03:52:37.129Z,14.20
2022-12-23T03:55:07.527Z,16.00
2022-12-23T03:57:39.469Z,10.00
2022-12-23T04:00:09.428Z,15.80
2022-12-23T04:02:42.575Z,17.80
2022-12-23T04:05:17.910Z,16.20
2022-12-23T04:07:48.115Z,12.40
2022-12-23T04:10:16.860Z,13.60
2022-12-23T04:12:45.704Z,15.00
2022-12-23T04:15:14.589Z,15.00
2022-12-23T04:17:44.616Z,14.80
2022-12-23T04:20:13.657Z,18.20
2022-12-23T04:22:43.742Z,19.60
2022-12-23T04:25:12.787Z,12.80
2022-12-23T04:27:44.030Z,12.40
2022-12-23T04:30:18.876Z,10.20
2022-12-23T04:32:49.187Z,14.00
2022-12-23T04:35:17.937Z,12.60
2022-12-23T04:37:46.673Z,11.60
2022-12-23T04:40:15.803Z,12.40
2022-12-23T04:42:44.564Z,10.00
2022-12-23T04:45:13.435Z,15.00
2022-12-23T04:47:42.480Z,12.20
2022-12-23T04:50:15.201Z,7.00
2022-12-23T04:52:43.948Z,11.60
2022-12-23T04:55:12.949Z,11.00
2022-12-23T04:57:41.667Z,14.40
2022-12-23T05:00:11.293Z,11.20
2022-12-23T05:02:40.400Z,11.20
2022-12-23T05:05:09.618Z,10.20
2022-12-23T05:07:39.734Z,10.40
2022-12-23T05:10:10.228Z,17.20
2022-12-23T05:12:42.150Z,22.60
2022-12-23T05:15:11.343Z,15.80
2022-12-23T05:17:40.381Z,9.80
2022-12-23T05:20:10.858Z,7.40
2022-12-23T05:22:40.928Z,19.40
2022-12-23T05:25:10.652Z,21.40
2022-12-23T05:27:39.342Z,12.60
2022-12-23T05:30:09.340Z,22.80
2022-12-23T05:32:39.517Z,10.20
2022-12-23T05:35:08.980Z,26.60
2022-12-23T05:37:37.729Z,21.20
2022-12-23T05:40:09.023Z,24.80
2022-12-23T05:42:37.822Z,18.40
2022-12-23T05:45:06.990Z,18.80
2022-12-23T05:47:35.685Z,16.20
2022-12-23T05:50:04.737Z,17.40
2022-12-23T05:52:33.454Z,20.60
2022-12-23T05:55:02.169Z,20.80
2022-12-23T05:57:32.861Z,18.60
2022-12-23T06:00:01.531Z,24.00
2022-12-23T06:02:30.387Z,19.80
2022-12-23T06:04:59.517Z,23.00
2022-12-23T06:07:28.461Z,21.60
2022-12-23T06:09:57.193Z,24.20
2022-12-23T06:12:25.898Z,19.00
2022-12-23T06:14:55.941Z,22.80
2022-12-23T06:17:24.700Z,24.60
2022-12-23T06:19:53.413Z,25.80
2022-12-23T06:22:23.751Z,23.40
2022-12-23T06:24:52.465Z,28.80
2022-12-23T06:27:21.189Z,24.20
2022-12-23T06:29:50.027Z,20.00
2022-12-23T06:32:20.373Z,21.40
2022-12-23T06:34:53.507Z,25.40
2022-12-23T06:37:22.273Z,30.60
2022-12-23T06:39:50.898Z,29.00
2022-12-23T06:42:19.574Z,26.20
2022-12-23T06:44:48.261Z,27.00
2022-12-23T06:47:17.222Z,23.40
2022-12-23T06:49:47.265Z,32.00
2022-12-23T06:52:15.961Z,30.40
2022-12-23T06:54:44.677Z,37.60
2022-12-23T06:57:13.903Z,27.60
2022-12-23T06:59:42.562Z,30.00
2022-12-23T07:02:12.229Z,28.20
2022-12-23T07:04:41.366Z,19.40
2022-12-23T07:07:11.439Z,22.80
2022-12-23T07:09:40.113Z,34.40
2022-12-23T07:12:08.896Z,21.80
2022-12-23T07:14:37.594Z,22.40
2022-12-23T07:17:24.064Z,17.40
2022-12-23T07:19:52.725Z,18.00
2022-12-23T07:22:22.784Z,20.60
2022-12-23T07:24:51.439Z,22.80
2022-12-23T07:27:20.127Z,21.00
2022-12-23T07:29:48.851Z,24.40
2022-12-23T07:32:17.567Z,32.80
2022-12-23T07:34:46.241Z,24.40
2022-12-23T07:37:15.357Z,21.00
2022-12-23T07:39:45.512Z,22.20
2022-12-23T07:42:43.553Z,27.20
2022-12-23T07:45:03.248Z,27.80
2022-12-23T07:47:32.029Z,23.60
2022-12-23T07:50:00.803Z,28.80
2022-12-23T07:52:30.572Z,33.20
2022-12-23T07:55:01.062Z,19.00
2022-12-23T07:57:30.524Z,31.40
2022-12-23T07:59:59.265Z,32.40
2022-12-23T08:02:28.168Z,34.40
2022-12-23T08:04:57.492Z,19.80
2022-12-23T08:07:26.202Z,26.40
2022-12-23T08:09:54.882Z,26.40
2022-12-23T08:12:25.062Z,21.40
2022-12-23T08:14:54.091Z,20.40
2022-12-23T08:17:23.556Z,22.40
2022-12-23T08:19:52.958Z,26.00
2022-12-23T08:22:21.687Z,25.60
2022-12-23T08:24:50.455Z,24.80
2022-12-23T08:27:19.489Z,23.80
2022-12-23T08:29:49.612Z,27.60
2022-12-23T08:32:21.224Z,28.80
2022-12-23T08:34:49.923Z,24.00
2022-12-23T08:37:18.641Z,27.60
2022-12-23T08:39:47.481Z,18.40
2022-12-23T08:42:17.073Z,22.80
2022-12-23T08:44:46.168Z,21.40
2022-12-23T08:47:16.301Z,24.20
2022-12-23T08:49:45.002Z,18.00
2022-12-23T08:52:13.986Z,19.20
2022-12-23T08:54:42.786Z,16.80
2022-12-23T08:57:11.524Z,20.00
2022-12-23T08:59:40.314Z,13.20
2022-12-23T09:02:10.454Z,21.40
2022-12-23T09:04:40.712Z,15.20
2022-12-23T09:07:09.498Z,16.00
2022-12-23T09:09:39.329Z,24.40
2022-12-23T09:12:08.224Z,15.00
2022-12-23T09:14:37.010Z,17.60
2022-12-23T09:17:05.822Z,9.20
2022-12-23T09:19:34.887Z,13.00
2022-12-23T09:22:04.992Z,18.00
2022-12-23T09:24:34.125Z,14.40
2022-12-23T09:27:03.319Z,20.40
2022-12-23T09:29:32.093Z,19.00
2022-12-23T09:32:00.826Z,17.60
2022-12-23T09:34:29.584Z,11.40
2022-12-23T09:36:58.348Z,18.40
2022-12-23T09:39:28.453Z,15.20
2022-12-23T09:42:04.182Z,10.60
2022-12-23T09:44:43.576Z,13.00
2022-12-23T09:47:15.857Z,15.80
2022-12-23T09:49:47.773Z,11.40
2022-12-23T09:52:23.156Z,11.80
2022-12-23T09:54:54.662Z,8.20
2022-12-23T09:57:25.201Z,7.40
2022-12-23T10:00:01.735Z,13.40
2022-12-23T10:02:35.244Z,12.00
2022-12-23T10:05:07.355Z,18.20
2022-12-23T10:07:37.662Z,10.00
2022-12-23T10:10:13.728Z,12.40
2022-12-23T10:12:43.738Z,7.40
2022-12-23T10:15:21.131Z,11.80
2022-12-23T10:17:51.518Z,11.20
2022-12-23T10:20:24.366Z,10.00
2022-12-23T10:22:53.113Z,7.40
2022-12-23T10:25:24.588Z,11.60
2022-12-23T10:27:54.683Z,10.20
2022-12-23T10:30:53.951Z,15.00
2022-12-23T10:33:19.365Z,14.80
2022-12-23T10:35:50.866Z,15.60
2022-12-23T10:38:28.102Z,15.20
2022-12-23T10:41:08.936Z,17.60
2022-12-23T10:43:43.852Z,10.80
2022-12-23T10:46:18.964Z,12.80
2022-12-23T10:48:54.132Z,10.40
2022-12-23T10:51:24.673Z,10.40
2022-12-23T10:53:55.214Z,10.80
2022-12-23T10:56:25.455Z,13.00
2022-12-23T10:58:56.118Z,8.20
2022-12-23T11:01:27.308Z,12.00
2022-12-23T11:03:59.795Z,12.40
2022-12-23T11:06:34.854Z,12.20
2022-12-23T11:09:24.435Z,15.80
2022-12-23T11:11:57.001Z,19.00
2022-12-23T11:14:32.405Z,13.40
2022-12-23T11:17:02.395Z,12.00
2022-12-23T11:19:31.215Z,9.40
2022-12-23T11:22:02.140Z,8.00
2022-12-23T11:24:38.085Z,15.00
2022-12-23T11:27:13.363Z,12.00
2022-12-23T11:29:47.486Z,8.00
2022-12-23T11:32:18.718Z,6.80
2022-12-23T11:34:48.224Z,6.00
2022-12-23T11:37:28.106Z,8.60
2022-12-23T11:40:02.280Z,8.20
2022-12-23T11:42:32.623Z,7.20
2022-12-23T11:45:02.566Z,4.40
2022-12-23T11:47:37.740Z,7.00
2022-12-23T11:50:29.031Z,6.20
2022-12-23T11:53:02.277Z,6.40
2022-12-23T11:55:40.193Z,7.00
2022-12-23T11:58:20.497Z,7.80
2022-12-23T12:00:56.137Z,5.80
2022-12-23T12:03:27.463Z,6.40
2022-12-23T12:05:58.573Z,6.60
2022-12-23T12:08:38.352Z,8.80
2022-12-23T12:11:09.656Z,7.80
2022-12-23T12:13:40.964Z,8.60
2022-12-23T12:16:22.791Z,9.00
2022-12-23T12:18:55.921Z,8.60
2022-12-23T12:21:26.840Z,7.40
2022-12-23T12:24:17.090Z,6.00
2022-12-23T12:26:47.693Z,5.80
2022-12-23T12:29:24.543Z,7.00
2022-12-23T12:31:54.738Z,8.20
2022-12-23T12:34:34.117Z,7.60
2022-12-23T12:37:08.016Z,6.00
2022-12-23T12:39:38.921Z,5.40
2022-12-23T12:42:30.442Z,7.40
2022-12-23T12:45:22.991Z,5.40
2022-12-23T12:48:00.140Z,6.00
2022-12-23T12:50:35.659Z,8.40
2022-12-23T12:53:07.818Z,5.80
2022-12-23T12:55:38.086Z,9.20
2022-12-23T12:58:06.967Z,6.80
2022-12-23T13:00:52.745Z,10.20
2022-12-23T13:03:29.576Z,6.00
2022-12-23T13:06:06.867Z,13.00
2022-12-23T13:08:45.241Z,15.40
2022-12-23T13:11:35.869Z,15.00
2022-12-23T13:14:16.472Z,15.60
2022-12-23T13:16:49.621Z,12.20
2022-12-23T13:19:23.765Z,7.80
2022-12-23T13:21:55.969Z,11.20
2022-12-23T13:24:26.845Z,7.80
2022-12-23T13:27:02.095Z,18.80
2022-12-23T13:29:47.347Z,9.00
2022-12-23T13:32:26.692Z,7.20
2022-12-23T13:34:59.654Z,7.60
2022-12-23T13:37:34.335Z,7.40
2022-12-23T13:40:09.843Z,10.80
2022-12-23T13:42:42.074Z,5.80
2022-12-23T13:45:15.054Z,6.80
2022-12-23T13:47:50.683Z,2.80
2022-12-23T13:50:21.892Z,3.20
2022-12-23T13:53:03.330Z,3.20
2022-12-23T13:55:50.427Z,2.40
2022-12-23T13:58:20.061Z,4.60
2022-12-23T14:00:49.254Z,2.60
2022-12-23T14:03:21.949Z,4.00
2022-12-23T14:05:51.806Z,3.00
2022-12-23T14:08:24.467Z,7.00
2022-12-23T14:10:55.148Z,3.80
2022-12-23T14:13:25.975Z,3.00
2022-12-23T14:16:05.747Z,3.00
2022-12-23T14:18:45.900Z,1.00
2022-12-23T14:21:18.634Z,4.00
2022-12-23T14:24:03.847Z,4.40
2022-12-23T14:26:46.139Z,3.80
2022-12-23T14:29:26.888Z,1.20
2022-12-23T14:31:57.355Z,4.40
2022-12-23T14:34:31.238Z,3.00
2022-12-23T14:37:16.887Z,4.00
2022-12-23T14:39:46.868Z,1.00
2022-12-23T14:42:16.884Z,2.20
2022-12-23T14:44:50.285Z,1.80
2022-12-23T14:47:33.773Z,3.40
2022-12-23T14:50:31.849Z,2.60
2022-12-23T14:53:03.146Z,2.40
2022-12-23T14:55:43.124Z,6.00
2022-12-23T14:58:53.769Z,6.20
2022-12-23T15:01:28.208Z,8.80
2022-12-23T15:04:01.241Z,11.20
2022-12-23T15:06:34.315Z,13.20
2022-12-23T15:09:05.510Z,16.80
2022-12-23T15:11:35.859Z,14.20
2022-12-23T15:14:06.324Z,16.40
2022-12-23T15:16:36.140Z,16.80
2022-12-23T15:19:17.622Z,15.40
2022-12-23T15:21:50.362Z,11.20
2022-12-23T15:24:26.061Z,11.40
2022-12-23T15:27:25.429Z,9.20
2022-12-23T15:29:46.824Z,4.80
2022-12-23T15:32:15.592Z,6.60
2022-12-23T15:34:44.678Z,6.40
2022-12-23T15:37:13.840Z,4.80
2022-12-23T15:39:45.326Z,3.60
2022-12-23T15:42:23.882Z,3.40
2022-12-23T15:44:52.765Z,3.00
2022-12-23T15:47:26.130Z,1.40
2022-12-23T15:49:54.956Z,1.00
2022-12-23T15:52:23.694Z,5.60
2022-12-23T15:55:00.181Z,3.60
2022-12-23T15:57:50.570Z,3.80
2022-12-23T16:00:21.512Z,5.20
2022-12-23T16:03:03.278Z,7.00
2022-12-23T16:05:35.405Z,9.00
2022-12-23T16:08:12.621Z,5.60
2022-12-23T16:10:43.130Z,7.80
2022-12-23T16:13:17.759Z,6.60
2022-12-23T16:18:34.648Z,11.20
2022-12-23T16:21:04.084Z,12.80
2022-12-23T16:23:33.721Z,10.40
2022-12-23T16:26:08.846Z,13.00
2022-12-23T16:28:39.904Z,8.40
2022-12-23T16:31:09.001Z,10.40
2022-12-23T16:33:40.050Z,11.00
2022-12-23T16:36:20.721Z,12.80
2022-12-23T16:38:54.169Z,13.00
2022-12-23T16:42:16.031Z,11.60
2022-12-23T16:44:46.333Z,14.20
2022-12-23T16:47:18.272Z,10.80
2022-12-23T16:49:48.504Z,7.80
2022-12-23T16:52:17.471Z,12.00
2022-12-23T16:54:47.758Z,12.00
2022-12-23T17:00:44.992Z,15.60
2022-12-23T17:03:16.849Z,10.80
2022-12-23T17:05:46.663Z,15.60
2022-12-23T17:08:15.870Z,12.40
2022-12-23T17:10:45.185Z,15.20
2022-12-23T17:13:17.982Z,11.60
2022-12-23T17:15:47.216Z,6.60
2022-12-23T17:18:18.279Z,11.60
2022-12-23T17:20:47.515Z,12.20
2022-12-23T17:23:27.342Z,7.00
2022-12-23T17:25:56.215Z,4.40
2022-12-23T17:28:26.635Z,5.40
2022-12-23T17:30:56.583Z,11.00
2022-12-23T17:33:27.242Z,9.20
2022-12-23T17:35:57.526Z,9.00
2022-12-23T17:38:29.597Z,7.80
2022-12-23T17:41:00.278Z,11.00
2022-12-23T17:43:31.493Z,8.20
2022-12-23T17:46:01.235Z,6.00
2022-12-23T17:48:32.014Z,6.60
2022-12-23T17:51:01.301Z,3.60
2022-12-23T17:53:30.391Z,2.20
2022-12-23T17:55:59.235Z,5.20
2022-12-23T17:58:29.718Z,5.20
2022-12-23T18:00:58.961Z,3.00
2022-12-23T18:03:27.986Z,7.20
2022-12-23T18:06:01.522Z,3.40
2022-12-23T18:08:31.721Z,3.00
2022-12-23T18:11:01.147Z,4.80
2022-12-23T18:13:31.738Z,6.20
2022-12-23T18:16:19.669Z,4.40
2022-12-23T18:18:49.052Z,6.60
2022-12-23T18:21:36.533Z,3.00
2022-12-23T18:24:07.060Z,3.20
2022-12-23T18:26:36.511Z,6.60
2022-12-23T18:29:07.689Z,5.60
2022-12-23T18:31:37.728Z,3.80
2022-12-23T18:34:07.523Z,3.00
2022-12-23T18:36:37.199Z,4.00
2022-12-23T18:39:06.391Z,1.80
2022-12-23T18:41:35.373Z,1.00
2022-12-23T18:44:06.394Z,1.80
2022-12-23T18:46:35.631Z,3.20
2022-12-23T18:49:05.923Z,7.80
2022-12-23T18:51:36.517Z,1.00
2022-12-23T18:54:05.762Z,2.20
2022-12-23T18:56:41.132Z,3.00
2022-12-23T18:59:22.848Z,3.60
2022-12-23T19:01:59.117Z,2.60
2022-12-23T19:04:28.608Z,1.00
2022-12-23T19:06:58.599Z,3.80
2022-12-23T19:09:27.426Z,6.00
2022-12-23T19:11:57.023Z,3.00
2022-12-23T19:14:27.542Z,3.40
2022-12-23T19:17:00.165Z,0.00
2022-12-23T19:19:28.866Z,6.80
2022-12-23T19:21:57.947Z,9.40
2022-12-23T19:24:26.801Z,3.00
2022-12-23T19:26:56.391Z,4.00
2022-12-23T19:29:43.228Z,4.00
2022-12-23T19:32:13.387Z,4.00
2022-12-23T19:34:42.175Z,3.60
2022-12-23T19:37:10.922Z,3.80
2022-12-23T19:39:41.192Z,2.20
2022-12-23T19:42:10.518Z,5.80
2022-12-23T19:44:44.639Z,3.40
2022-12-23T19:47:16.496Z,3.20
2022-12-23T19:49:45.239Z,6.00
2022-12-23T19:52:13.940Z,6.00
2022-12-23T19:54:43.221Z,3.60
2022-12-23T19:57:11.985Z,5.20
2022-12-23T19:59:40.657Z,6.00
2022-12-23T20:02:12.143Z,3.80
2022-12-23T20:04:42.817Z,3.00
2022-12-23T20:07:11.646Z,3.40
2022-12-23T20:09:40.527Z,3.80
2022-12-23T20:12:09.768Z,7.20
2022-12-23T20:14:38.502Z,3.80
2022-12-23T20:17:07.349Z,5.40
2022-12-23T20:19:43.752Z,2.60
2022-12-23T20:22:16.119Z,3.80
2022-12-23T20:24:45.070Z,4.00
2022-12-23T20:27:16.135Z,2.80
2022-12-23T20:29:45.767Z,0.00
2022-12-23T20:32:16.234Z,5.20
2022-12-23T20:34:51.386Z,4.00
2022-12-23T20:37:24.680Z,6.00
2022-12-23T20:39:54.209Z,3.80
2022-12-23T20:42:27.578Z,0.60
2022-12-23T20:44:56.999Z,1.00
2022-12-23T20:47:27.837Z,6.60
2022-12-23T20:49:56.905Z,6.00
2022-12-23T20:52:28.160Z,6.40
2022-12-23T20:54:57.561Z,5.20
2022-12-23T20:57:27.150Z,4.00
2022-12-23T20:59:56.786Z,7.80
2022-12-23T21:02:27.271Z,3.60
2022-12-23T21:04:56.673Z,6.80
2022-12-23T21:07:29.548Z,5.60
2022-12-23T21:09:59.119Z,6.80
2022-12-23T21:12:28.901Z,0.80
2022-12-23T21:14:57.915Z,4.40
2022-12-23T21:17:26.918Z,3.00
2022-12-23T21:19:58.185Z,4.40
2022-12-23T21:22:28.654Z,6.20
2022-12-23T21:24:57.436Z,4.60
2022-12-23T21:27:27.032Z,3.00
2022-12-23T21:29:55.786Z,1.40
2022-12-23T21:32:25.469Z,3.00
2022-12-23T21:34:58.791Z,3.40
2022-12-23T21:37:30.055Z,3.00
2022-12-23T21:39:58.928Z,6.40
2022-12-23T21:42:28.294Z,4.00
2022-12-23T21:44:57.672Z,5.80
2022-12-23T21:47:26.423Z,6.00
2022-12-23T21:49:55.176Z,3.80
2022-12-23T21:52:24.211Z,4.40
2022-12-23T21:54:54.555Z,4.00
2022-12-23T21:57:23.270Z,3.00
2022-12-23T21:59:52.033Z,6.80
2022-12-23T22:02:21.076Z,3.20
2022-12-23T22:04:49.951Z,4.80
2022-12-23T22:07:18.736Z,1.80
2022-12-23T22:09:47.503Z,3.20
2022-12-23T22:12:18.171Z,1.00
2022-12-23T22:14:47.582Z,1.40
2022-12-23T22:17:16.358Z,1.00
2022-12-23T22:19:46.963Z,4.00
2022-12-23T22:22:18.404Z,0.80
2022-12-23T22:24:48.731Z,1.00
2022-12-23T22:27:20.073Z,1.80
2022-12-23T22:29:48.785Z,0.60
2022-12-23T22:32:17.856Z,0.80
2022-12-23T22:34:49.590Z,1.00
2022-12-23T22:37:18.926Z,1.00
2022-12-23T22:39:48.076Z,6.00
2022-12-23T22:42:18.455Z,2.60
2022-12-23T22:44:47.218Z,1.00
2022-12-23T22:47:17.206Z,3.20
2022-12-23T22:49:45.979Z,1.40
2022-12-23T22:52:14.985Z,4.80
2022-12-23T22:54:44.014Z,2.20
2022-12-23T22:57:15.187Z,4.80
2022-12-23T22:59:45.605Z,3.60
2022-12-23T23:02:14.456Z,3.80
2022-12-23T23:04:43.210Z,1.40
2022-12-23T23:07:12.051Z,0.00
2022-12-23T23:09:40.826Z,4.40
2022-12-23T23:12:09.668Z,5.20
2022-12-23T23:14:52.530Z,3.40
2022-12-23T23:17:24.070Z,2.40
2022-12-23T23:19:52.837Z,3.20
2022-12-23T23:22:22.432Z,3.60
2022-12-23T23:24:51.077Z,0.20
2022-12-23T23:27:19.856Z,2.60
2022-12-23T23:29:48.865Z,1.80
2022-12-23T23:32:20.357Z,6.40
2022-12-23T23:34:51.113Z,1.00
2022-12-23T23:37:19.993Z,2.20
2022-12-23T23:39:48.858Z,3.20
2022-12-23T23:42:18.129Z,0.20
2022-12-23T23:44:46.919Z,2.60
2022-12-23T23:47:16.652Z,4.80
2022-12-23T23:49:45.365Z,3.20
2022-12-23T23:52:15.476Z,4.40
2022-12-23T23:54:44.978Z,4.80
2022-12-23T23:57:16.994Z,2.80
2022-12-23T23:59:45.696Z,3.20
